createdAt,value
2023-01-29T00:01:47.399Z,83.91
2023-01-29T00:04:00.516Z,84.18
2023-01-29T00:06:16.068Z,84.50
2023-01-29T00:08:29.280Z,84.71
2023-01-29T00:10:42.632Z,84.78
2023-01-29T00:12:56.346Z,85.20
2023-01-29T00:15:11.005Z,85.73
2023-01-29T00:17:24.170Z,85.80
2023-01-29T00:19:37.620Z,86.08
2023-01-29T00:21:51.333Z,86.36
2023-01-29T00:24:04.583Z,86.66
2023-01-29T00:26:18.140Z,86.72
2023-01-29T00:28:32.602Z,87.12
2023-01-29T00:30:45.590Z,87.13
2023-01-29T00:32:58.563Z,87.13
2023-01-29T00:35:17.848Z,87.03
2023-01-29T00:37:31.260Z,87.01
2023-01-29T00:39:48.068Z,86.91
2023-01-29T00:42:17.875Z,87.41
2023-01-29T00:44:47.273Z,87.28
2023-01-29T00:47:01.143Z,87.59
2023-01-29T00:49:15.020Z,87.63
2023-01-29T00:51:28.542Z,87.74
2023-01-29T00:53:41.600Z,87.52
2023-01-29T00:55:55.600Z,87.30
2023-01-29T00:58:09.369Z,87.42
2023-01-29T01:00:25.978Z,87.45
2023-01-29T01:02:55.614Z,87.33
2023-01-29T01:05:15.250Z,86.98
2023-01-29T01:07:28.863Z,86.90
2023-01-29T01:09:59.943Z,87.01
2023-01-29T01:12:13.462Z,87.21
2023-01-29T01:14:26.480Z,87.32
2023-01-29T01:16:39.790Z,87.64
2023-01-29T01:18:53.697Z,87.66
2023-01-29T01:21:07.359Z,87.67
2023-01-29T01:23:20.291Z,87.87
2023-01-29T01:25:33.524Z,88.13
2023-01-29T01:27:46.641Z,88.09
2023-01-29T01:29:59.999Z,88.32
2023-01-29T01:32:13.071Z,88.62
2023-01-29T01:34:28.310Z,88.59
2023-01-29T01:36:41.889Z,88.62
2023-01-29T01:38:55.515Z,88.72
2023-01-29T01:41:08.780Z,88.92
2023-01-29T01:43:21.795Z,88.89
2023-01-29T01:45:36.600Z,88.78
2023-01-29T01:47:54.843Z,88.44
2023-01-29T01:50:13.567Z,88.42
2023-01-29T01:52:28.069Z,88.56
2023-01-29T01:54:41.635Z,88.45
2023-01-29T01:57:06.053Z,88.71
2023-01-29T01:59:21.449Z,88.64
2023-01-29T02:01:34.965Z,88.47
2023-01-29T02:04:09.602Z,88.87
2023-01-29T02:06:40.312Z,88.82
2023-01-29T02:09:16.159Z,88.79
2023-01-29T02:11:30.341Z,88.84
2023-01-29T02:13:44.803Z,89.18
2023-01-29T02:15:57.989Z,89.09
2023-01-29T02:18:12.119Z,89.11
2023-01-29T02:20:30.940Z,89.10
2023-01-29T02:23:19.460Z,89.05
2023-01-29T02:25:54.127Z,88.98
2023-01-29T02:28:24.603Z,88.81
2023-01-29T02:30:41.385Z,89.01
2023-01-29T02:33:03.149Z,89.22
2023-01-29T02:35:29.887Z,89.45
2023-01-29T02:37:53.779Z,89.71
2023-01-29T02:40:16.610Z,89.54
2023-01-29T02:42:38.260Z,89.64
2023-01-29T02:44:59.063Z,89.28
2023-01-29T02:47:21.159Z,88.94
2023-01-29T02:49:41.587Z,89.09
2023-01-29T02:52:04.783Z,89.19
2023-01-29T02:54:25.829Z,89.28
2023-01-29T02:56:46.260Z,89.13
2023-01-29T02:59:04.260Z,89.30
2023-01-29T03:01:24.247Z,89.19
2023-01-29T03:03:41.621Z,88.91
2023-01-29T03:06:03.388Z,88.88
2023-01-29T03:08:20.233Z,88.74
2023-01-29T03:10:38.790Z,88.86
2023-01-29T03:12:56.677Z,88.76
2023-01-29T03:15:18.239Z,88.83
2023-01-29T03:17:51.157Z,88.80
2023-01-29T03:20:07.991Z,88.96
2023-01-29T03:22:23.152Z,88.93
2023-01-29T03:25:01.216Z,88.75
2023-01-29T03:27:35.671Z,88.60
2023-01-29T03:30:09.029Z,88.40
2023-01-29T03:32:42.168Z,88.09
2023-01-29T03:35:01.051Z,87.12
2023-01-29T03:37:17.869Z,86.67
2023-01-29T03:39:32.411Z,86.96
2023-01-29T03:41:51.569Z,86.58
2023-01-29T03:44:16.810Z,86.53
2023-01-29T03:46:35.637Z,86.66
2023-01-29T03:48:57.518Z,86.55
2023-01-29T03:51:22.259Z,86.42
2023-01-29T03:53:42.612Z,85.96
2023-01-29T03:56:03.242Z,86.16
2023-01-29T03:58:25.349Z,86.24
2023-01-29T04:00:42.779Z,86.05
2023-01-29T04:03:05.823Z,86.29
2023-01-29T04:05:19.369Z,86.26
2023-01-29T04:07:49.770Z,86.01
2023-01-29T04:10:08.414Z,85.89
2023-01-29T04:12:30.563Z,85.80
2023-01-29T04:14:44.570Z,85.83
2023-01-29T04:17:01.124Z,85.72
2023-01-29T04:19:22.479Z,85.39
2023-01-29T04:21:38.446Z,85.26
2023-01-29T04:23:51.755Z,85.50
2023-01-29T04:26:28.207Z,85.66
2023-01-29T04:28:57.579Z,85.82
2023-01-29T04:31:15.511Z,85.76
2023-01-29T04:33:41.386Z,85.62
2023-01-29T04:36:07.525Z,85.51
2023-01-29T04:38:34.240Z,85.43
2023-01-29T04:40:54.647Z,85.51
2023-01-29T04:43:12.879Z,85.39
2023-01-29T04:45:34.469Z,85.55
2023-01-29T04:47:58.134Z,85.40
2023-01-29T04:50:20.469Z,85.24
2023-01-29T04:52:46.552Z,85.33
2023-01-29T04:55:07.010Z,85.22
2023-01-29T04:57:26.581Z,85.48
2023-01-29T04:59:45.542Z,85.22
2023-01-29T05:01:59.265Z,85.25
2023-01-29T05:04:16.841Z,84.81
2023-01-29T05:06:31.531Z,85.24
2023-01-29T05:08:45.591Z,84.98
2023-01-29T05:11:01.044Z,84.94
2023-01-29T05:13:17.769Z,84.97
2023-01-29T05:15:37.429Z,84.89
2023-01-29T05:17:50.813Z,84.81
2023-01-29T05:20:04.133Z,84.66
2023-01-29T05:22:23.921Z,84.28
2023-01-29T05:24:39.387Z,84.18
2023-01-29T05:27:10.792Z,83.98
2023-01-29T05:29:25.110Z,84.05
2023-01-29T05:31:38.479Z,83.66
2023-01-29T05:33:52.169Z,83.64
2023-01-29T05:36:06.953Z,83.38
2023-01-29T05:38:20.768Z,83.41
2023-01-29T05:40:34.795Z,82.98
2023-01-29T05:42:47.899Z,82.89
2023-01-29T05:45:00.745Z,83.05
2023-01-29T05:47:14.424Z,82.65
2023-01-29T05:49:28.812Z,82.88
2023-01-29T05:51:41.760Z,82.77
2023-01-29T05:53:54.753Z,82.62
2023-01-29T05:56:09.602Z,82.19
2023-01-29T05:58:22.771Z,82.06
2023-01-29T06:00:35.685Z,82.25
2023-01-29T06:02:48.563Z,81.92
2023-01-29T06:05:01.940Z,81.93
2023-01-29T06:07:15.476Z,81.53
2023-01-29T06:09:28.340Z,81.40
2023-01-29T06:11:42.014Z,81.37
2023-01-29T06:13:55.504Z,80.77
2023-01-29T06:16:11.401Z,80.59
2023-01-29T06:18:25.419Z,80.65
2023-01-29T06:20:38.768Z,80.85
2023-01-29T06:22:51.983Z,80.53
2023-01-29T06:25:04.984Z,79.99
2023-01-29T06:27:21.503Z,79.71
2023-01-29T06:29:34.413Z,79.90
2023-01-29T06:31:47.503Z,79.07
2023-01-29T06:34:00.440Z,79.35
2023-01-29T06:36:14.655Z,79.33
2023-01-29T06:38:27.596Z,79.28
2023-01-29T06:40:41.706Z,78.37
2023-01-29T06:42:54.721Z,78.65
2023-01-29T06:45:07.946Z,78.31
2023-01-29T06:47:20.900Z,77.56
2023-01-29T06:49:34.613Z,77.60
2023-01-29T06:51:47.656Z,77.64
2023-01-29T06:54:01.087Z,77.57
2023-01-29T06:56:14.676Z,77.57
2023-01-29T06:58:28.358Z,77.43
2023-01-29T07:00:41.914Z,77.08
2023-01-29T07:02:57.419Z,76.89
2023-01-29T07:05:11.619Z,77.09
2023-01-29T07:07:24.621Z,76.98
2023-01-29T07:09:37.740Z,77.02
2023-01-29T07:11:50.681Z,77.03
2023-01-29T07:14:03.760Z,77.09
2023-01-29T07:16:16.870Z,76.64
2023-01-29T07:18:30.039Z,76.42
2023-01-29T07:20:44.732Z,76.96
2023-01-29T07:22:57.645Z,76.65
2023-01-29T07:25:13.029Z,76.27
2023-01-29T07:27:25.989Z,76.31
2023-01-29T07:29:40.230Z,76.20
2023-01-29T07:31:53.287Z,75.97
2023-01-29T07:34:06.220Z,75.98
2023-01-29T07:36:19.390Z,75.62
2023-01-29T07:38:32.292Z,75.71
2023-01-29T07:40:45.223Z,75.68
2023-01-29T07:43:08.015Z,74.80
2023-01-29T07:45:21.619Z,74.93
2023-01-29T07:47:35.370Z,75.17
2023-01-29T07:49:49.260Z,74.68
2023-01-29T07:52:06.694Z,73.88
2023-01-29T07:54:20.802Z,73.81
2023-01-29T07:56:34.449Z,73.93
2023-01-29T07:58:47.600Z,74.23
2023-01-29T08:01:00.828Z,73.85
2023-01-29T08:03:17.270Z,73.16
2023-01-29T08:05:31.333Z,72.74
2023-01-29T08:07:49.225Z,73.25
2023-01-29T08:10:04.557Z,73.23
2023-01-29T08:12:18.215Z,73.12
2023-01-29T08:14:31.435Z,72.63
2023-01-29T08:16:44.574Z,72.47
2023-01-29T08:18:58.081Z,72.16
2023-01-29T08:21:13.787Z,71.93
2023-01-29T08:23:27.110Z,71.96
2023-01-29T08:25:40.878Z,71.73
2023-01-29T08:27:54.124Z,71.41
2023-01-29T08:30:07.701Z,71.20
2023-01-29T08:32:21.090Z,71.23
2023-01-29T08:34:35.440Z,71.30
2023-01-29T08:36:50.015Z,70.62
2023-01-29T08:39:03.007Z,70.13
2023-01-29T08:41:16.070Z,71.05
2023-01-29T08:43:29.061Z,70.20
2023-01-29T08:45:44.757Z,70.16
2023-01-29T08:47:58.040Z,69.31
2023-01-29T08:50:12.889Z,69.04
2023-01-29T08:52:26.500Z,67.95
2023-01-29T08:54:40.353Z,67.89
2023-01-29T08:56:53.659Z,68.32
2023-01-29T08:59:07.460Z,68.28
2023-01-29T09:01:21.584Z,68.69
2023-01-29T09:03:34.950Z,67.69
2023-01-29T09:05:48.577Z,68.21
2023-01-29T09:08:02.676Z,66.69
2023-01-29T09:10:17.051Z,66.99
2023-01-29T09:12:30.355Z,67.07
2023-01-29T09:14:43.867Z,66.98
2023-01-29T09:16:57.015Z,67.08
2023-01-29T09:19:11.299Z,67.55
2023-01-29T09:21:25.259Z,67.42
2023-01-29T09:23:38.520Z,66.68
2023-01-29T09:25:51.449Z,66.24
2023-01-29T09:28:04.503Z,65.45
2023-01-29T09:30:19.540Z,65.16
2023-01-29T09:35:06.254Z,65.53
2023-01-29T09:37:21.017Z,65.05
2023-01-29T09:39:34.371Z,65.85
2023-01-29T09:41:56.844Z,65.72
2023-01-29T09:44:20.349Z,65.57
2023-01-29T09:46:34.490Z,66.16
2023-01-29T09:48:50.309Z,66.17
2023-01-29T09:51:06.671Z,66.17
2023-01-29T09:53:28.494Z,66.55
2023-01-29T09:55:46.119Z,66.69
2023-01-29T09:58:01.720Z,66.88
2023-01-29T10:00:22.224Z,67.02
2023-01-29T10:02:59.456Z,67.33
2023-01-29T10:05:39.730Z,67.25
2023-01-29T10:08:19.221Z,67.16
2023-01-29T10:10:45.639Z,67.52
2023-01-29T10:13:11.193Z,67.74
2023-01-29T10:15:39.460Z,67.57
2023-01-29T10:18:12.755Z,67.64
2023-01-29T10:20:48.068Z,67.87
2023-01-29T10:23:11.159Z,68.03
2023-01-29T10:25:26.791Z,68.23
2023-01-29T10:27:42.750Z,67.76
2023-01-29T10:29:58.274Z,68.15
2023-01-29T10:32:15.382Z,68.20
2023-01-29T10:34:35.251Z,68.20
2023-01-29T10:36:51.926Z,68.19
2023-01-29T10:39:05.055Z,68.17
2023-01-29T10:41:46.991Z,68.28
2023-01-29T10:44:15.140Z,68.35
2023-01-29T10:46:38.209Z,68.27
2023-01-29T10:48:57.759Z,68.11
2023-01-29T10:51:18.720Z,68.37
2023-01-29T10:53:44.753Z,68.19
2023-01-29T10:56:21.969Z,68.13
2023-01-29T10:58:42.979Z,68.26
2023-01-29T11:00:56.287Z,68.15
2023-01-29T11:06:00.273Z,68.20
2023-01-29T11:08:17.130Z,68.33
2023-01-29T11:10:30.919Z,68.17
2023-01-29T11:12:45.045Z,68.10
2023-01-29T11:15:02.729Z,68.02
2023-01-29T11:17:20.959Z,67.88
2023-01-29T11:19:45.061Z,67.90
2023-01-29T11:22:02.319Z,67.98
2023-01-29T11:24:18.921Z,67.74
2023-01-29T11:26:31.799Z,68.05
2023-01-29T11:28:46.979Z,68.07
2023-01-29T11:31:00.970Z,68.24
2023-01-29T11:33:21.766Z,68.17
2023-01-29T11:35:37.751Z,68.05
2023-01-29T11:37:52.008Z,68.37
2023-01-29T11:40:05.922Z,68.48
2023-01-29T11:42:28.142Z,68.62
2023-01-29T11:44:44.920Z,68.66
2023-01-29T11:46:58.479Z,68.64
2023-01-29T11:49:23.729Z,68.95
2023-01-29T11:51:37.470Z,68.93
2023-01-29T11:53:54.889Z,68.98
2023-01-29T11:56:19.681Z,69.11
2023-01-29T11:58:36.509Z,69.18
2023-01-29T12:00:54.801Z,69.20
2023-01-29T12:03:16.449Z,69.25
2023-01-29T12:05:30.747Z,69.22
2023-01-29T12:07:50.046Z,69.29
2023-01-29T12:10:04.566Z,69.44
2023-01-29T12:12:37.853Z,69.66
2023-01-29T12:15:05.663Z,69.50
2023-01-29T12:17:25.147Z,69.54
2023-01-29T12:19:43.885Z,69.65
2023-01-29T12:22:04.127Z,69.70
2023-01-29T12:24:33.333Z,69.79
2023-01-29T12:26:53.069Z,69.95
2023-01-29T12:29:17.061Z,69.82
2023-01-29T12:31:38.638Z,69.96
2023-01-29T12:33:57.841Z,70.04
2023-01-29T12:36:17.769Z,69.87
2023-01-29T12:38:31.434Z,69.80
2023-01-29T12:40:51.151Z,70.09
2023-01-29T12:43:09.729Z,70.23
2023-01-29T12:45:27.010Z,70.18
2023-01-29T12:47:45.271Z,70.14
2023-01-29T12:50:01.880Z,70.17
2023-01-29T12:52:21.670Z,70.23
2023-01-29T12:54:43.102Z,70.40
2023-01-29T12:56:59.686Z,70.41
2023-01-29T12:59:21.114Z,70.56
2023-01-29T13:01:40.986Z,70.86
2023-01-29T13:04:00.596Z,70.92
2023-01-29T13:06:17.629Z,70.95
2023-01-29T13:08:34.290Z,71.06
2023-01-29T13:10:52.066Z,71.14
2023-01-29T13:13:08.960Z,71.21
2023-01-29T13:15:29.671Z,71.41
2023-01-29T13:17:47.289Z,71.39
2023-01-29T13:20:03.009Z,71.52
2023-01-29T13:22:25.110Z,71.65
2023-01-29T13:24:49.930Z,71.55
2023-01-29T13:27:22.181Z,71.44
2023-01-29T13:29:36.070Z,71.40
2023-01-29T13:31:54.155Z,71.42
2023-01-29T13:34:17.542Z,71.47
2023-01-29T13:36:34.056Z,71.50
2023-01-29T13:38:48.675Z,71.73
2023-01-29T13:41:05.401Z,71.72
2023-01-29T13:43:26.412Z,71.76
2023-01-29T13:45:46.563Z,71.77
2023-01-29T13:48:11.719Z,71.64
2023-01-29T13:50:33.966Z,71.69
2023-01-29T13:52:49.480Z,71.87
2023-01-29T13:55:07.039Z,72.07
2023-01-29T13:57:55.716Z,71.94
2023-01-29T14:00:10.231Z,72.24
2023-01-29T14:02:31.849Z,72.15
2023-01-29T14:04:45.327Z,72.11
2023-01-29T14:07:00.316Z,72.07
2023-01-29T14:09:51.901Z,72.04
2023-01-29T14:12:05.110Z,72.15
2023-01-29T14:14:47.043Z,72.08
2023-01-29T14:17:06.904Z,72.10
2023-01-29T14:19:25.361Z,71.88
2023-01-29T14:21:40.668Z,71.89
2023-01-29T14:23:56.280Z,72.05
2023-01-29T14:26:22.924Z,71.96
2023-01-29T14:28:38.339Z,71.91
2023-01-29T14:30:54.567Z,71.99
2023-01-29T14:33:09.189Z,72.02
2023-01-29T14:35:27.473Z,72.00
2023-01-29T14:37:42.765Z,72.00
2023-01-29T14:39:58.806Z,71.91
2023-01-29T14:42:26.336Z,72.01
2023-01-29T14:45:12.618Z,72.04
2023-01-29T14:47:47.410Z,72.09
2023-01-29T14:50:02.961Z,72.13
2023-01-29T14:52:18.672Z,72.23
2023-01-29T14:54:35.190Z,72.21
2023-01-29T14:56:58.489Z,72.28
2023-01-29T14:59:21.236Z,72.33
2023-01-29T15:01:38.995Z,72.33
2023-01-29T15:03:54.669Z,72.41
2023-01-29T15:06:09.612Z,72.43
2023-01-29T15:08:31.796Z,72.38
2023-01-29T15:10:49.261Z,72.32
2023-01-29T15:13:08.300Z,72.46
2023-01-29T15:15:28.321Z,72.51
2023-01-29T15:17:49.719Z,72.50
2023-01-29T15:20:26.269Z,72.54
2023-01-29T15:22:48.609Z,72.59
2023-01-29T15:25:17.183Z,72.62
2023-01-29T15:27:32.059Z,72.63
2023-01-29T15:29:47.124Z,72.57
2023-01-29T15:32:01.492Z,72.49
2023-01-29T15:34:15.417Z,72.64
2023-01-29T15:36:31.839Z,72.55
2023-01-29T15:38:45.251Z,72.55
2023-01-29T15:41:03.317Z,72.55
2023-01-29T15:43:27.819Z,72.59
2023-01-29T15:45:44.020Z,72.52
2023-01-29T15:47:58.982Z,72.57
2023-01-29T15:50:14.843Z,72.46
2023-01-29T15:52:34.136Z,72.56
2023-01-29T15:54:47.662Z,72.55
2023-01-29T15:57:01.152Z,72.38
2023-01-29T15:59:22.399Z,72.48
2023-01-29T16:01:35.910Z,72.38
2023-01-29T16:03:49.850Z,72.31
2023-01-29T16:06:03.869Z,72.21
2023-01-29T16:08:20.089Z,72.17
2023-01-29T16:10:36.120Z,72.06
2023-01-29T16:12:52.550Z,72.18
2023-01-29T16:15:07.363Z,72.12
2023-01-29T16:17:36.479Z,71.93
2023-01-29T16:19:58.671Z,71.87
2023-01-29T16:22:12.769Z,71.94
2023-01-29T16:24:27.549Z,71.79
2023-01-29T16:26:43.424Z,71.63
2023-01-29T16:28:56.790Z,71.61
2023-01-29T16:31:10.396Z,71.52
2023-01-29T16:33:23.479Z,71.04
2023-01-29T16:35:36.887Z,70.98
2023-01-29T16:37:54.330Z,70.77
2023-01-29T16:40:33.869Z,70.45
2023-01-29T16:42:48.868Z,70.37
2023-01-29T16:45:04.446Z,70.43
2023-01-29T16:47:27.428Z,70.32
2023-01-29T16:49:56.810Z,70.03
2023-01-29T16:52:24.047Z,69.72
2023-01-29T16:54:37.210Z,69.77
2023-01-29T16:56:51.820Z,69.51
2023-01-29T16:59:07.100Z,69.06
2023-01-29T17:01:24.484Z,69.08
2023-01-29T17:03:40.847Z,68.53
2023-01-29T17:05:54.202Z,68.17
2023-01-29T17:08:07.964Z,67.94
2023-01-29T17:10:24.887Z,67.81
2023-01-29T17:12:39.036Z,68.11
2023-01-29T17:15:02.204Z,67.96
2023-01-29T17:17:21.855Z,68.24
2023-01-29T17:19:35.559Z,67.98
2023-01-29T17:21:49.296Z,67.91
2023-01-29T17:24:02.323Z,67.66
2023-01-29T17:26:17.686Z,67.24
2023-01-29T17:28:31.739Z,66.82
2023-01-29T17:30:56.701Z,66.11
2023-01-29T17:33:23.079Z,65.03
2023-01-29T17:35:36.621Z,65.29
2023-01-29T17:37:51.650Z,65.45
2023-01-29T17:40:05.464Z,64.95
2023-01-29T17:42:20.856Z,64.51
2023-01-29T17:44:33.898Z,64.88
2023-01-29T17:46:47.274Z,64.88
2023-01-29T17:49:00.424Z,64.22
2023-01-29T17:51:17.798Z,64.75
2023-01-29T17:53:45.509Z,64.30
2023-01-29T17:55:59.092Z,64.65
2023-01-29T17:58:14.415Z,64.09
2023-01-29T18:00:28.428Z,62.21
2023-01-29T18:02:41.372Z,61.92
2023-01-29T18:04:56.489Z,63.06
2023-01-29T18:07:10.822Z,62.75
2023-01-29T18:09:25.829Z,62.79
2023-01-29T18:11:39.803Z,62.69
2023-01-29T18:13:52.996Z,62.26
2023-01-29T18:16:06.649Z,61.75
2023-01-29T18:18:22.973Z,62.49
2023-01-29T18:20:39.750Z,62.17
2023-01-29T18:22:52.932Z,61.92
2023-01-29T18:25:05.829Z,61.16
2023-01-29T18:27:18.839Z,61.86
2023-01-29T18:29:31.997Z,61.23
2023-01-29T18:31:44.952Z,61.16
2023-01-29T18:33:58.002Z,61.68
2023-01-29T18:36:12.832Z,60.71
2023-01-29T18:38:26.621Z,61.30
2023-01-29T18:40:39.643Z,60.42
2023-01-29T18:42:52.873Z,60.99
2023-01-29T18:45:05.971Z,61.40
2023-01-29T18:47:19.312Z,61.46
2023-01-29T18:49:32.380Z,59.99
2023-01-29T18:51:45.760Z,59.64
2023-01-29T18:53:58.708Z,58.68
2023-01-29T18:56:13.459Z,57.07
2023-01-29T18:58:34.811Z,58.34
2023-01-29T19:00:51.463Z,58.60
2023-01-29T19:03:05.115Z,57.36
2023-01-29T19:05:20.311Z,58.29
2023-01-29T19:07:34.552Z,58.74
2023-01-29T19:09:48.518Z,58.86
2023-01-29T19:12:01.431Z,58.51
2023-01-29T19:14:14.568Z,58.93
2023-01-29T19:16:28.448Z,58.84
2023-01-29T19:18:42.628Z,59.23
2023-01-29T19:20:58.891Z,57.97
2023-01-29T19:23:11.924Z,58.13
2023-01-29T19:25:25.189Z,58.31
2023-01-29T19:27:38.359Z,58.12
2023-01-29T19:29:52.110Z,58.15
2023-01-29T19:32:05.186Z,58.34
2023-01-29T19:34:19.136Z,57.99
2023-01-29T19:36:32.181Z,58.28
2023-01-29T19:38:45.981Z,57.44
2023-01-29T19:40:59.211Z,57.68
2023-01-29T19:43:12.451Z,57.23
2023-01-29T19:45:42.096Z,57.24
2023-01-29T19:48:00.345Z,56.31
2023-01-29T19:50:15.704Z,56.95
2023-01-29T19:52:52.552Z,57.17
2023-01-29T19:55:06.014Z,56.34
2023-01-29T19:57:19.023Z,56.33
2023-01-29T19:59:32.082Z,55.96
2023-01-29T20:01:45.209Z,55.79
2023-01-29T20:04:01.708Z,56.42
2023-01-29T20:06:16.683Z,56.99
2023-01-29T20:08:30.215Z,56.68
2023-01-29T20:10:43.381Z,56.95
2023-01-29T20:12:56.981Z,56.77
2023-01-29T20:15:12.245Z,56.59
2023-01-29T20:17:25.312Z,55.68
2023-01-29T20:19:38.494Z,55.71
2023-01-29T20:21:52.480Z,53.90
2023-01-29T20:24:05.546Z,55.00
2023-01-29T20:26:20.839Z,55.46
2023-01-29T20:28:33.926Z,53.61
2023-01-29T20:30:48.130Z,54.29
2023-01-29T20:33:05.154Z,54.87
2023-01-29T20:35:18.434Z,54.20
2023-01-29T20:37:31.465Z,53.80
2023-01-29T20:39:44.374Z,51.60
2023-01-29T20:41:58.483Z,51.70
2023-01-29T20:44:11.809Z,51.53
2023-01-29T20:46:25.194Z,52.15
2023-01-29T20:48:38.546Z,52.53
2023-01-29T20:50:51.894Z,52.29
2023-01-29T20:53:06.061Z,52.10
2023-01-29T20:55:19.254Z,52.41
2023-01-29T20:57:32.519Z,51.93
2023-01-29T20:59:46.251Z,52.34
2023-01-29T21:01:59.546Z,51.49
2023-01-29T21:04:12.692Z,51.92
2023-01-29T21:06:26.061Z,50.29
2023-01-29T21:08:39.304Z,50.02
2023-01-29T21:10:55.138Z,50.37
2023-01-29T21:13:08.891Z,49.92
2023-01-29T21:15:22.629Z,50.84
2023-01-29T21:17:35.981Z,51.21
2023-01-29T21:19:49.340Z,50.71
2023-01-29T21:22:02.419Z,50.91
2023-01-29T21:24:16.261Z,48.74
2023-01-29T21:26:29.404Z,49.11
2023-01-29T21:28:42.390Z,49.19
2023-01-29T21:31:05.127Z,48.97
2023-01-29T21:33:18.288Z,50.02
2023-01-29T21:35:31.129Z,47.98
2023-01-29T21:37:44.410Z,47.49
2023-01-29T21:39:57.309Z,47.85
2023-01-29T21:42:26.829Z,49.54
2023-01-29T21:44:40.553Z,50.18
2023-01-29T21:46:54.088Z,48.74
2023-01-29T21:49:07.531Z,49.01
2023-01-29T21:51:20.940Z,47.94
2023-01-29T21:53:34.298Z,48.23
2023-01-29T21:55:49.109Z,48.47
2023-01-29T21:58:02.338Z,47.96
2023-01-29T22:00:17.757Z,48.09
2023-01-29T22:02:33.205Z,48.49
2023-01-29T22:04:46.459Z,48.09
2023-01-29T22:06:59.678Z,46.74
2023-01-29T22:09:14.789Z,47.56
2023-01-29T22:11:28.383Z,47.98
2023-01-29T22:13:41.434Z,46.19
2023-01-29T22:15:57.610Z,45.27
2023-01-29T22:18:11.048Z,45.51
2023-01-29T22:20:30.840Z,43.69
2023-01-29T22:22:44.390Z,44.65
2023-01-29T22:24:59.545Z,44.25
2023-01-29T22:27:12.375Z,44.48
2023-01-29T22:29:25.804Z,43.62
2023-01-29T22:31:39.259Z,43.68
2023-01-29T22:33:54.549Z,44.62
2023-01-29T22:36:08.700Z,46.34
2023-01-29T22:38:23.911Z,47.07
2023-01-29T22:40:39.910Z,43.47
2023-01-29T22:42:52.899Z,43.17
2023-01-29T22:45:05.765Z,43.94
2023-01-29T22:47:18.875Z,45.54
2023-01-29T22:49:32.652Z,45.77
2023-01-29T22:51:45.583Z,44.04
2023-01-29T22:54:00.681Z,43.44
2023-01-29T22:56:14.996Z,43.23
2023-01-29T22:58:28.202Z,44.31
2023-01-29T23:00:41.640Z,44.70
2023-01-29T23:02:54.959Z,44.26
2023-01-29T23:05:08.198Z,44.50
2023-01-29T23:07:21.018Z,45.29
2023-01-29T23:09:34.788Z,45.85
2023-01-29T23:11:48.299Z,46.00
2023-01-29T23:14:01.782Z,45.33
2023-01-29T23:16:15.468Z,45.03
2023-01-29T23:18:28.652Z,46.15
2023-01-29T23:20:42.018Z,46.81
2023-01-29T23:22:55.200Z,46.80
2023-01-29T23:25:08.597Z,43.13
2023-01-29T23:27:22.637Z,43.28
2023-01-29T23:29:35.598Z,42.47
2023-01-29T23:31:48.895Z,42.99
2023-01-29T23:34:02.026Z,43.49
2023-01-29T23:36:15.540Z,43.86
2023-01-29T23:38:28.469Z,43.38
2023-01-29T23:40:41.359Z,42.02
2023-01-29T23:42:56.200Z,42.91
2023-01-29T23:45:09.779Z,41.93
2023-01-29T23:47:23.041Z,42.97
2023-01-29T23:49:35.999Z,43.13
2023-01-29T23:51:50.450Z,43.69
2023-01-29T23:54:03.439Z,43.01
2023-01-29T23:56:16.861Z,42.70
2023-01-29T23:58:29.930Z,42.05
